Time;durP1;ratioP1;P1;durP2;ratioP2;P2;SDS_P1;SDS_P2;PMS_P1;PMS_P2;Temp;Humidity;BMP_temperature;BMP_pressure;BME280_temperature;BME280_humidity;BME280_pressure;Samples;Min_cycle;Max_cycle;Signal;HPM_P1;HPM_P2
2023/11/25 00:00:53;;;;;;;3.25;1.40;;;1.60;99.90;;;;;;5050569;28;20037;-65
2023/11/25 00:03:21;;;;;;;2.60;1.52;;;1.50;99.90;;;;;;5049499;28;20048;-64
2023/11/25 00:05:49;;;;;;;3.42;1.38;;;1.50;99.90;;;;;;5050305;28;20051;-62
2023/11/25 00:08:16;;;;;;;6.63;2.35;;;1.50;99.90;;;;;;5054978;28;20048;-61
2023/11/25 00:10:43;;;;;;;3.58;1.80;;;1.40;99.90;;;;;;5029741;28;20746;-61
2023/11/25 00:13:11;;;;;;;3.83;1.70;;;1.50;99.90;;;;;;5050924;28;20091;-62
2023/11/25 00:15:38;;;;;;;2.20;1.55;;;1.40;99.90;;;;;;5054136;28;20650;-63
2023/11/25 00:18:07;;;;;;;3.10;1.25;;;1.40;99.90;;;;;;5052938;28;20489;-64
2023/11/25 00:20:36;;;;;;;3.03;1.48;;;1.40;99.90;;;;;;5058872;28;20064;-64
2023/11/25 00:23:04;;;;;;;2.35;1.17;;;1.40;99.90;;;;;;5053102;28;20481;-64
2023/11/25 00:25:31;;;;;;;2.45;0.95;;;1.30;99.90;;;;;;5049113;28;20399;-61
2023/11/25 00:27:59;;;;;;;4.10;1.10;;;1.40;99.90;;;;;;5054945;28;20048;-62
2023/11/25 00:30:27;;;;;;;3.35;1.25;;;1.40;99.90;;;;;;5040951;28;20073;-62
2023/11/25 00:32:54;;;;;;;2.30;1.73;;;1.40;99.90;;;;;;5052870;28;20167;-65
2023/11/25 00:35:22;;;;;;;2.00;1.27;;;1.50;99.90;;;;;;5059338;28;20434;-63
2023/11/25 00:37:49;;;;;;;5.65;2.38;;;1.40;99.90;;;;;;5034007;28;20182;-65
2023/11/25 00:40:16;;;;;;;4.38;2.38;;;1.40;99.90;;;;;;5054855;28;20139;-64
2023/11/25 00:42:44;;;;;;;2.13;1.10;;;1.40;99.90;;;;;;5049764;28;20582;-62
2023/11/25 00:45:11;;;;;;;4.03;1.33;;;1.40;99.90;;;;;;5053629;28;20059;-61
2023/11/25 00:47:41;;;;;;;6.32;1.75;;;1.40;99.90;;;;;;5036637;28;20107;-62
2023/11/25 00:50:15;;;;;;;4.68;1.30;;;1.40;99.90;;;;;;5048592;28;20052;-64
2023/11/25 00:52:43;;;;;;;3.65;1.15;;;1.50;99.90;;;;;;5051234;28;20041;-63
2023/11/25 00:55:10;;;;;;;5.30;1.63;;;1.50;99.90;;;;;;5052772;28;20079;-62
2023/11/25 00:57:38;;;;;;;5.18;2.85;;;1.50;99.90;;;;;;5056774;28;20040;-62
2023/11/25 01:00:05;;;;;;;3.88;1.70;;;1.50;99.90;;;;;;5053884;28;20044;-61
2023/11/25 01:02:33;;;;;;;5.47;3.15;;;1.60;99.90;;;;;;5052411;28;20120;-61
2023/11/25 01:05:00;;;;;;;2.15;1.27;;;1.50;99.90;;;;;;5052017;28;20156;-61
2023/11/25 01:07:28;;;;;;;2.42;1.17;;;1.50;99.90;;;;;;5051166;28;20044;-61
2023/11/25 01:10:00;;;;;;;3.25;2.08;;;1.50;99.90;;;;;;5030798;28;20037;-61
2023/11/25 01:12:27;;;;;;;4.50;1.55;;;1.40;99.90;;;;;;5022304;28;20054;-62
2023/11/25 01:14:54;;;;;;;2.13;1.88;;;1.40;99.90;;;;;;5065659;28;20081;-61
2023/11/25 01:17:20;;;;;;;4.22;2.03;;;1.40;99.90;;;;;;5028707;28;20081;-64
2023/11/25 01:19:47;;;;;;;4.40;1.83;;;1.30;99.90;;;;;;5054405;28;20044;-62
2023/11/25 01:22:14;;;;;;;6.30;1.60;;;1.40;99.90;;;;;;5029744;28;20656;-61
2023/11/25 01:24:42;;;;;;;3.10;1.40;;;1.40;99.90;;;;;;5054622;28;20045;-62
2023/11/25 01:27:09;;;;;;;4.05;1.65;;;1.40;99.90;;;;;;5052998;28;20052;-64
2023/11/25 01:29:36;;;;;;;2.70;1.73;;;1.40;99.90;;;;;;5048071;28;20044;-62
2023/11/25 01:32:03;;;;;;;3.97;1.73;;;1.40;99.90;;;;;;5051941;28;20069;-61
2023/11/25 01:34:30;;;;;;;3.03;1.23;;;1.40;99.90;;;;;;5052686;28;20052;-62
2023/11/25 01:36:57;;;;;;;2.45;1.88;;;1.40;99.90;;;;;;5071409;28;20106;-62
2023/11/25 01:39:26;;;;;;;3.97;1.80;;;1.50;99.90;;;;;;5055462;28;20056;-61
2023/11/25 01:41:54;;;;;;;4.25;2.08;;;1.50;99.90;;;;;;5051405;28;20041;-61
2023/11/25 01:44:22;;;;;;;3.63;2.42;;;1.40;99.90;;;;;;5050249;28;20079;-62
2023/11/25 01:46:51;;;;;;;3.08;2.72;;;1.40;99.90;;;;;;5069900;28;20052;-66
2023/11/25 01:49:23;;;;;;;6.75;2.03;;;1.40;99.90;;;;;;5067449;28;20148;-61
2023/11/25 01:51:51;;;;;;;3.17;2.05;;;1.40;99.90;;;;;;5061378;28;20040;-64
2023/11/25 01:54:21;;;;;;;2.67;1.75;;;1.30;99.90;;;;;;5049910;28;20052;-64
2023/11/25 01:56:53;;;;;;;2.95;1.55;;;1.30;99.90;;;;;;5051263;28;20047;-61
2023/11/25 01:59:21;;;;;;;3.53;2.20;;;1.30;99.90;;;;;;5067855;28;20049;-61
2023/11/25 02:01:48;;;;;;;3.05;1.67;;;1.30;99.90;;;;;;5030473;28;20219;-62
2023/11/25 02:04:17;;;;;;;5.85;1.75;;;1.30;99.90;;;;;;5047710;28;20049;-66
2023/11/25 02:06:44;;;;;;;2.25;1.60;;;1.30;99.90;;;;;;5049325;28;20135;-63
2023/11/25 02:09:12;;;;;;;3.10;1.80;;;1.30;99.90;;;;;;5039558;28;20068;-63
2023/11/25 02:11:56;;;;;;;5.95;2.22;;;1.30;99.90;;;;;;5050175;28;20068;-61
2023/11/25 02:14:27;;;;;;;3.88;1.85;;;1.30;99.90;;;;;;5034798;28;20442;-64
2023/11/25 02:16:55;;;;;;;4.75;2.88;;;1.30;99.90;;;;;;5032860;28;20106;-63
2023/11/25 02:19:26;;;;;;;4.22;2.22;;;1.30;99.90;;;;;;5064495;28;20515;-62
2023/11/25 02:21:53;;;;;;;;;;;1.20;99.90;;;;;;5029868;28;20711;-63
2023/11/25 02:24:22;;;;;;;3.90;1.63;;;1.20;99.90;;;;;;5034405;28;20510;-67
2023/11/25 02:26:57;;;;;;;6.20;2.15;;;1.20;99.90;;;;;;5047100;28;20116;-65
2023/11/25 02:29:25;;;;;;;3.85;2.25;;;1.20;99.90;;;;;;5058791;28;20448;-62
2023/11/25 02:31:52;;;;;;;2.00;1.58;;;1.20;99.90;;;;;;5046913;28;20094;-63
2023/11/25 02:34:20;;;;;;;5.18;2.03;;;1.20;99.90;;;;;;5047679;28;20048;-62
2023/11/25 02:36:48;;;;;;;3.90;1.85;;;1.30;99.90;;;;;;5050383;28;20044;-65
2023/11/25 02:39:17;;;;;;;2.33;1.27;;;1.40;99.90;;;;;;5047487;28;20068;-63
2023/11/25 02:41:49;;;;;;;1.73;1.27;;;1.40;99.90;;;;;;5051433;28;20048;-63
2023/11/25 02:44:17;;;;;;;2.15;1.45;;;1.30;99.90;;;;;;5072581;28;20049;-64
2023/11/25 02:46:48;;;;;;;4.18;1.90;;;1.30;99.90;;;;;;5065356;28;20053;-62
2023/11/25 02:49:16;;;;;;;3.55;1.52;;;1.30;99.90;;;;;;5068592;28;20045;-61
2023/11/25 02:51:50;;;;;;;2.92;1.85;;;1.20;99.90;;;;;;5050132;28;20083;-63
2023/11/25 02:54:19;;;;;;;3.20;1.38;;;1.20;99.90;;;;;;5040908;28;20061;-66
2023/11/25 02:56:46;;;;;;;3.90;1.70;;;1.20;99.90;;;;;;5051829;28;20051;-64
2023/11/25 02:59:13;;;;;;;2.15;1.77;;;1.10;99.90;;;;;;5047158;28;20049;-62
2023/11/25 03:01:48;;;;;;;2.80;0.93;;;1.00;99.90;;;;;;5049273;28;20098;-66
2023/11/25 03:04:16;;;;;;;4.07;1.55;;;1.00;99.90;;;;;;5048635;28;20044;-62
2023/11/25 03:06:45;;;;;;;2.25;1.80;;;1.10;99.90;;;;;;5048185;28;20060;-62
2023/11/25 03:09:13;;;;;;;2.25;1.35;;;1.00;99.90;;;;;;5049617;28;20068;-61
2023/11/25 03:11:40;;;;;;;5.50;1.38;;;0.80;99.90;;;;;;5051159;28;20033;-62
2023/11/25 03:14:07;;;;;;;4.72;2.65;;;0.90;99.90;;;;;;5051755;28;20044;-61
2023/11/25 03:16:34;;;;;;;3.28;1.92;;;0.90;99.90;;;;;;5045230;28;20052;-61
2023/11/25 03:19:02;;;;;;;3.17;2.50;;;0.90;99.90;;;;;;5028681;28;20044;-62
2023/11/25 03:21:30;;;;;;;7.53;2.08;;;0.90;99.90;;;;;;5054714;28;20041;-61
2023/11/25 03:23:59;;;;;;;3.72;1.63;;;0.70;99.90;;;;;;5033001;28;20045;-60
2023/11/25 03:26:26;;;;;;;4.05;2.20;;;0.60;99.90;;;;;;5053140;28;20074;-61
2023/11/25 03:28:53;;;;;;;2.70;1.90;;;0.50;99.90;;;;;;5047641;28;20056;-66
2023/11/25 03:31:19;;;;;;;4.38;1.90;;;0.40;99.90;;;;;;5047808;28;20045;-62
2023/11/25 03:33:47;;;;;;;6.65;1.65;;;0.30;99.90;;;;;;5049717;28;20497;-62
2023/11/25 03:36:13;;;;;;;4.07;1.92;;;0.20;99.90;;;;;;5047675;28;20044;-62
2023/11/25 03:38:40;;;;;;;2.80;1.80;;;0.30;99.90;;;;;;5031010;28;20125;-62
2023/11/25 03:41:08;;;;;;;2.05;1.50;;;0.40;99.90;;;;;;5030882;28;20103;-60
2023/11/25 03:43:35;;;;;;;4.20;2.67;;;0.50;99.90;;;;;;5032084;28;20072;-63
2023/11/25 03:46:04;;;;;;;1.92;1.42;;;0.60;99.90;;;;;;5054332;28;20120;-61
2023/11/25 03:48:32;;;;;;;3.70;1.83;;;0.60;99.90;;;;;;5058341;28;21179;-62
2023/11/25 03:50:59;;;;;;;6.30;1.70;;;0.60;99.90;;;;;;5036457;28;20384;-64
2023/11/25 03:53:27;;;;;;;2.85;1.95;;;0.40;99.90;;;;;;5036248;28;20048;-62
2023/11/25 03:55:54;;;;;;;3.35;1.88;;;0.30;99.90;;;;;;5056164;28;20040;-61
2023/11/25 03:58:21;;;;;;;6.43;2.30;;;0.20;99.90;;;;;;5049784;28;20056;-62
2023/11/25 04:00:48;;;;;;;4.25;2.25;;;0.20;99.90;;;;;;5053027;28;20049;-65
2023/11/25 04:03:15;;;;;;;2.28;1.63;;;0.10;99.90;;;;;;5049926;28;20155;-62
2023/11/25 04:05:42;;;;;;;7.55;2.72;;;0.10;99.90;;;;;;5050843;28;20040;-61
2023/11/25 04:08:08;;;;;;;2.15;1.63;;;0.20;99.90;;;;;;5055180;28;20044;-62
2023/11/25 04:10:36;;;;;;;4.00;2.08;;;0.30;99.90;;;;;;5033870;28;20064;-61
2023/11/25 04:13:04;;;;;;;4.65;2.10;;;0.40;99.90;;;;;;5048481;28;20041;-65
2023/11/25 04:15:31;;;;;;;5.15;2.00;;;0.50;99.90;;;;;;5035934;28;20052;-63
2023/11/25 04:17:58;;;;;;;5.47;2.20;;;0.50;99.90;;;;;;5033255;28;20057;-61
2023/11/25 04:20:27;;;;;;;4.05;2.25;;;0.40;99.90;;;;;;5050539;28;20052;-63
2023/11/25 04:22:58;;;;;;;3.25;1.58;;;0.40;99.90;;;;;;5033259;28;20499;-61
2023/11/25 04:25:25;;;;;;;6.47;1.95;;;0.40;99.90;;;;;;5051211;28;20037;-63
2023/11/25 04:27:52;;;;;;;2.63;2.13;;;0.30;99.90;;;;;;5055697;28;20144;-67
2023/11/25 04:30:19;;;;;;;5.43;2.03;;;0.40;99.90;;;;;;5051059;28;20059;-64
2023/11/25 04:32:47;;;;;;;7.05;3.28;;;0.40;99.90;;;;;;5049894;28;20068;-60
2023/11/25 04:35:17;;;;;;;4.00;2.60;;;0.50;99.90;;;;;;5052902;28;20045;-63
2023/11/25 04:37:45;;;;;;;2.22;1.40;;;0.50;99.90;;;;;;5049083;28;20053;-62
2023/11/25 04:40:13;;;;;;;3.78;1.60;;;0.50;99.90;;;;;;5046226;28;20104;-61
2023/11/25 04:42:41;;;;;;;7.10;2.20;;;0.50;99.90;;;;;;5048164;28;20115;-62
2023/11/25 04:45:16;;;;;;;2.55;1.55;;;0.50;99.90;;;;;;5050368;28;20036;-63
2023/11/25 04:47:44;;;;;;;4.60;3.20;;;0.40;99.90;;;;;;5055018;28;20521;-62
2023/11/25 04:50:14;;;;;;;1.73;1.30;;;0.40;99.90;;;;;;5050014;28;20045;-64
2023/11/25 04:52:42;;;;;;;3.13;2.03;;;0.40;99.90;;;;;;5052682;28;20037;-64
2023/11/25 04:55:12;;;;;;;2.20;1.48;;;0.40;99.90;;;;;;5052314;28;20044;-66
2023/11/25 04:57:40;;;;;;;2.13;1.10;;;0.30;99.90;;;;;;5050394;28;20711;-61
2023/11/25 05:00:11;;;;;;;2.38;1.75;;;0.40;99.90;;;;;;5056532;28;20113;-60
2023/11/25 05:02:39;;;;;;;3.22;1.63;;;0.40;99.90;;;;;;5048937;28;20469;-64
2023/11/25 05:05:07;;;;;;;4.60;1.50;;;0.50;99.90;;;;;;5049880;28;20048;-61
2023/11/25 05:07:35;;;;;;;2.45;1.30;;;0.30;99.90;;;;;;5052716;28;20098;-62
2023/11/25 05:10:09;;;;;;;3.22;1.38;;;0.20;99.90;;;;;;5045969;28;20045;-61
2023/11/25 05:12:38;;;;;;;12.13;2.40;;;0.10;99.90;;;;;;5055378;28;20044;-61
2023/11/25 05:15:07;;;;;;;3.38;1.90;;;0.20;99.90;;;;;;5054428;28;20551;-63
2023/11/25 05:17:34;;;;;;;3.08;1.42;;;0.20;99.90;;;;;;5058393;28;20445;-61
2023/11/25 05:20:01;;;;;;;2.35;1.33;;;0.10;99.90;;;;;;5053059;28;20067;-63
2023/11/25 05:22:28;;;;;;;3.22;2.10;;;0.00;99.90;;;;;;5050011;28;20056;-61
2023/11/25 05:24:56;;;;;;;3.25;2.00;;;-0.10;99.90;;;;;;5050196;28;20556;-66
2023/11/25 05:27:23;;;;;;;1.85;1.40;;;-0.10;99.90;;;;;;5052517;28;20064;-61
2023/11/25 05:29:50;;;;;;;3.13;1.73;;;-0.20;99.90;;;;;;5047768;28;20032;-62
2023/11/25 05:32:16;;;;;;;2.85;1.48;;;-0.30;99.90;;;;;;5050796;28;20044;-60
2023/11/25 05:34:44;;;;;;;2.47;1.08;;;-0.40;99.90;;;;;;5051837;28;20039;-62
2023/11/25 05:37:13;;;;;;;3.38;1.58;;;-0.40;99.90;;;;;;5052736;28;20090;-61
2023/11/25 05:39:45;;;;;;;2.40;1.42;;;-0.50;99.90;;;;;;5052862;28;20044;-64
2023/11/25 05:42:13;;;;;;;4.50;2.03;;;-0.50;99.90;;;;;;5049755;28;20037;-62
2023/11/25 05:44:43;;;;;;;3.92;1.30;;;-0.50;99.90;;;;;;5053055;28;20037;-65
2023/11/25 05:47:10;;;;;;;2.63;1.77;;;-0.50;99.90;;;;;;5047213;28;20037;-62
2023/11/25 05:49:40;;;;;;;2.47;1.70;;;-0.50;99.90;;;;;;5045007;28;20597;-60
2023/11/25 05:52:07;;;;;;;3.22;1.70;;;-0.40;99.90;;;;;;5049180;28;20518;-62
2023/11/25 05:54:34;;;;;;;4.00;2.05;;;-0.30;99.90;;;;;;5044577;28;20049;-61
2023/11/25 05:57:01;;;;;;;2.25;2.05;;;-0.40;99.90;;;;;;5052075;28;20044;-66
2023/11/25 05:59:28;;;;;;;2.95;1.70;;;-0.40;99.90;;;;;;5053737;28;20049;-60
2023/11/25 06:01:55;;;;;;;2.92;1.40;;;-0.30;99.90;;;;;;5051882;28;20124;-69
2023/11/25 06:04:22;;;;;;;1.52;1.23;;;-0.20;99.90;;;;;;5050522;28;20052;-60
2023/11/25 06:06:49;;;;;;;1.63;1.10;;;-0.20;99.90;;;;;;5048565;28;20041;-62
2023/11/25 06:09:16;;;;;;;2.60;1.40;;;-0.10;99.90;;;;;;5052318;28;20045;-61
2023/11/25 06:11:43;;;;;;;4.95;1.35;;;-0.10;99.90;;;;;;5029914;28;20053;-67
2023/11/25 06:14:12;;;;;;;1.98;1.50;;;-0.10;99.90;;;;;;5051054;28;20106;-64
2023/11/25 06:16:42;;;;;;;2.83;2.00;;;-0.10;99.90;;;;;;5031433;28;20098;-63
2023/11/25 06:19:10;;;;;;;5.03;2.22;;;-0.30;99.90;;;;;;5048008;28;20045;-64
2023/11/25 06:21:38;;;;;;;2.90;1.80;;;-0.30;99.90;;;;;;5049981;28;20048;-63
2023/11/25 06:24:07;;;;;;;3.58;2.00;;;-0.40;99.90;;;;;;5053301;28;20099;-60
2023/11/25 06:26:34;;;;;;;2.90;2.13;;;-0.40;99.90;;;;;;5049489;28;20041;-64
2023/11/25 06:29:02;;;;;;;3.63;1.80;;;-0.50;99.90;;;;;;5047697;28;20044;-62
2023/11/25 06:31:30;;;;;;;1.77;1.67;;;-0.60;99.90;;;;;;5044490;28;20433;-63
2023/11/25 06:33:58;;;;;;;2.88;1.88;;;-0.60;99.90;;;;;;5046924;28;20060;-64
2023/11/25 06:36:25;;;;;;;4.97;2.42;;;-0.40;99.90;;;;;;5046658;28;20072;-60
2023/11/25 06:38:52;;;;;;;2.42;1.70;;;-0.20;99.90;;;;;;5052482;28;20394;-66
2023/11/25 06:41:23;;;;;;;3.45;1.83;;;-0.30;99.90;;;;;;5035766;28;20409;-64
2023/11/25 06:43:50;;;;;;;4.22;1.40;;;-0.50;99.90;;;;;;5044295;28;20048;-63
2023/11/25 06:46:17;;;;;;;1.67;1.10;;;-0.60;99.90;;;;;;5047517;28;20057;-60
2023/11/25 06:48:44;;;;;;;2.83;2.63;;;-0.70;99.90;;;;;;5052698;28;20050;-60
2023/11/25 06:51:11;;;;;;;4.15;1.35;;;-0.60;99.90;;;;;;5049639;28;20044;-63
2023/11/25 06:53:41;;;;;;;0.95;0.70;;;-0.50;99.90;;;;;;5047031;28;20098;-61
2023/11/25 06:56:10;;;;;;;3.67;0.75;;;-0.40;99.90;;;;;;5051602;28;20044;-63
2023/11/25 06:58:37;;;;;;;7.60;2.28;;;-0.30;99.90;;;;;;5051861;28;20052;-62
2023/11/25 07:01:04;;;;;;;3.42;1.45;;;-0.30;99.90;;;;;;5052308;28;20044;-63
2023/11/25 07:03:32;;;;;;;3.55;1.20;;;-0.20;99.90;;;;;;5049227;28;20044;-65
2023/11/25 07:05:59;;;;;;;1.15;0.98;;;-0.20;99.90;;;;;;5047743;28;20076;-61
2023/11/25 07:08:26;;;;;;;1.35;1.13;;;-0.40;99.90;;;;;;5055394;28;20049;-61
2023/11/25 07:10:59;;;;;;;3.65;1.38;;;-0.50;99.90;;;;;;5049026;28;20049;-62
2023/11/25 07:13:28;;;;;;;3.60;1.20;;;-0.60;99.90;;;;;;5051526;28;20090;-64
2023/11/25 07:15:56;;;;;;;2.28;0.75;;;-0.60;99.90;;;;;;5052200;28;20072;-63
2023/11/25 07:18:23;;;;;;;3.25;2.10;;;-0.60;99.90;;;;;;5051991;28;20059;-62
2023/11/25 07:20:50;;;;;;;3.33;1.48;;;-0.60;99.90;;;;;;5050151;28;20068;-62
2023/11/25 07:23:20;;;;;;;;;;;-0.50;99.90;;;;;;5052361;28;20037;-62
2023/11/25 07:25:47;;;;;;;1.67;0.73;;;-0.40;99.90;;;;;;5052240;28;19951;-60
2023/11/25 07:28:15;;;;;;;4.07;1.00;;;-0.30;99.90;;;;;;5060593;28;20045;-61
2023/11/25 07:30:44;;;;;;;0.85;0.50;;;-0.20;99.90;;;;;;5036078;28;20488;-63
2023/11/25 07:33:11;;;;;;;3.50;0.90;;;-0.10;99.90;;;;;;5052186;28;20035;-62
2023/11/25 07:35:39;;;;;;;2.88;1.00;;;-0.10;99.90;;;;;;5057268;28;20072;-60
2023/11/25 07:38:06;;;;;;;1.85;0.45;;;0.00;99.90;;;;;;5052873;28;20120;-66
2023/11/25 07:40:34;;;;;;;2.63;0.60;;;0.00;99.90;;;;;;5051071;28;20045;-64
2023/11/25 07:43:01;;;;;;;2.25;1.52;;;-0.10;99.90;;;;;;5053497;28;20431;-64
2023/11/25 07:45:28;;;;;;;3.70;1.00;;;0.00;99.90;;;;;;5051138;28;20549;-62
2023/11/25 07:47:55;;;;;;;3.15;0.80;;;0.00;99.90;;;;;;5058255;28;20045;-62
2023/11/25 07:50:21;;;;;;;2.60;0.73;;;0.00;99.90;;;;;;5053576;28;20439;-64
2023/11/25 07:52:50;;;;;;;4.75;0.63;;;0.10;99.90;;;;;;5029653;28;20517;-64
2023/11/25 07:55:18;;;;;;;5.53;1.15;;;0.10;99.90;;;;;;5053033;28;20080;-63
2023/11/25 07:57:49;;;;;;;4.57;1.13;;;0.00;99.90;;;;;;5036313;28;20450;-63
2023/11/25 08:00:16;;;;;;;;;;;0.00;99.90;;;;;;5059916;28;20491;-64
2023/11/25 08:02:44;;;;;;;2.38;1.30;;;0.00;99.90;;;;;;5051680;28;19974;-62
2023/11/25 08:05:21;;;;;;;1.38;0.90;;;0.00;99.90;;;;;;5051988;28;20044;-61
2023/11/25 08:07:52;;;;;;;3.97;0.75;;;0.00;99.90;;;;;;5059823;28;20147;-61
2023/11/25 08:10:21;;;;;;;2.25;0.80;;;-0.20;99.90;;;;;;5053621;28;20045;-62
2023/11/25 08:12:49;;;;;;;3.03;0.70;;;-0.30;99.90;;;;;;5054809;28;20136;-61
2023/11/25 08:15:19;;;;;;;2.60;0.98;;;-0.40;99.90;;;;;;5052610;28;20041;-60
2023/11/25 08:17:46;;;;;;;3.05;0.90;;;-0.50;99.90;;;;;;5047816;28;20045;-61
2023/11/25 08:20:13;;;;;;;4.47;1.58;;;-0.40;99.90;;;;;;5054726;28;20076;-64
2023/11/25 08:22:40;;;;;;;1.35;0.90;;;-0.40;99.90;;;;;;5052497;28;20036;-61
2023/11/25 08:25:08;;;;;;;2.03;0.90;;;-0.30;99.90;;;;;;5050091;28;20055;-61
2023/11/25 08:27:37;;;;;;;6.05;1.38;;;-0.20;99.90;;;;;;5052144;28;20490;-62
2023/11/25 08:30:11;;;;;;;3.20;0.88;;;-0.20;99.90;;;;;;5047547;28;20052;-61
2023/11/25 08:32:42;;;;;;;2.80;1.73;;;-0.30;99.90;;;;;;5052310;28;20041;-60
2023/11/25 08:35:10;;;;;;;1.00;0.63;;;-0.30;99.90;;;;;;5052366;28;20487;-61
2023/11/25 08:37:40;;;;;;;3.20;0.70;;;-0.30;99.90;;;;;;5052231;28;20076;-63
2023/11/25 08:40:09;;;;;;;1.58;0.77;;;-0.30;99.90;;;;;;5051510;28;20053;-64
2023/11/25 08:42:37;;;;;;;2.15;0.88;;;-0.30;99.90;;;;;;5057102;28;20059;-60
2023/11/25 08:45:04;;;;;;;5.22;1.27;;;-0.20;99.90;;;;;;5052827;28;20044;-63
2023/11/25 08:47:32;;;;;;;1.95;0.73;;;-0.20;99.90;;;;;;5056347;28;20139;-65
2023/11/25 08:49:59;;;;;;;1.38;0.90;;;-0.20;99.90;;;;;;5050824;28;20049;-61
2023/11/25 08:52:27;;;;;;;1.48;0.80;;;-0.30;99.90;;;;;;5059525;28;20118;-63
2023/11/25 08:54:54;;;;;;;4.38;1.35;;;-0.20;99.90;;;;;;5049868;28;20072;-65
2023/11/25 08:57:21;;;;;;;6.85;0.82;;;-0.20;99.90;;;;;;5051089;28;20520;-61
2023/11/25 08:59:48;;;;;;;2.08;1.08;;;-0.30;99.90;;;;;;5057599;28;20055;-62
2023/11/25 09:02:21;;;;;;;1.27;0.63;;;-0.20;99.90;;;;;;5050047;28;20434;-62
2023/11/25 09:04:49;;;;;;;4.10;1.23;;;-0.20;99.90;;;;;;5056359;28;20055;-62
2023/11/25 09:07:33;;;;;;;1.45;0.70;;;-0.30;99.90;;;;;;5049948;28;20562;-64
2023/11/25 09:10:05;;;;;;;4.70;1.60;;;-0.20;99.90;;;;;;5049170;28;20120;-60
2023/11/25 09:12:32;;;;;;;3.20;1.30;;;-0.20;99.90;;;;;;5057106;28;20646;-60
2023/11/25 09:14:59;;;;;;;1.70;0.95;;;-0.10;99.90;;;;;;5047736;28;20037;-59
2023/11/25 09:17:27;;;;;;;3.08;1.00;;;-0.10;99.90;;;;;;5050578;28;20056;-61
2023/11/25 09:19:54;;;;;;;4.55;1.17;;;-0.20;99.90;;;;;;5051541;28;20041;-62
2023/11/25 09:22:21;;;;;;;2.70;1.08;;;-0.40;99.90;;;;;;5048033;28;20068;-63
2023/11/25 09:24:48;;;;;;;3.92;1.45;;;-0.50;99.90;;;;;;5056588;28;20035;-61
2023/11/25 09:27:15;;;;;;;1.85;1.70;;;-0.60;99.90;;;;;;5045549;28;20060;-63
2023/11/25 09:29:42;;;;;;;3.67;1.45;;;-0.60;99.90;;;;;;5053585;28;20128;-64
2023/11/25 09:32:10;;;;;;;6.85;1.45;;;-0.60;99.90;;;;;;5052660;28;20049;-60
2023/11/25 09:34:38;;;;;;;4.68;1.05;;;-0.60;99.90;;;;;;5053798;28;20472;-60
2023/11/25 09:37:07;;;;;;;1.58;0.95;;;-0.60;99.90;;;;;;5046531;28;20052;-62
2023/11/25 09:39:34;;;;;;;1.45;1.00;;;-0.70;99.90;;;;;;5048756;28;20558;-63
2023/11/25 09:42:02;;;;;;;2.28;1.30;;;-0.70;99.90;;;;;;5049769;28;20487;-67
2023/11/25 09:44:30;;;;;;;5.82;1.50;;;-0.70;99.90;;;;;;5052353;28;20536;-60
2023/11/25 09:46:57;;;;;;;2.70;1.00;;;-0.60;99.90;;;;;;5051605;28;20099;-60
2023/11/25 09:49:25;;;;;;;2.90;1.45;;;-0.60;99.90;;;;;;5047127;28;20045;-63
2023/11/25 09:51:54;;;;;;;5.97;0.80;;;-0.60;99.90;;;;;;5056677;28;20543;-63
2023/11/25 09:54:21;;;;;;;3.28;2.35;;;-0.60;99.90;;;;;;5050564;28;20106;-61
2023/11/25 09:56:50;;;;;;;8.77;1.40;;;-0.70;99.90;;;;;;5050366;28;20548;-63
2023/11/25 09:59:18;;;;;;;4.32;2.03;;;-0.70;99.90;;;;;;5051090;28;20041;-62
2023/11/25 10:01:46;;;;;;;2.85;1.33;;;-0.80;99.90;;;;;;5049776;28;20053;-63
2023/11/25 10:04:15;;;;;;;2.60;1.85;;;-0.80;99.90;;;;;;5055692;28;20037;-60
2023/11/25 10:06:45;;;;;;;1.85;0.93;;;-0.70;99.90;;;;;;5053247;28;20044;-60
2023/11/25 10:09:15;;;;;;;1.52;0.63;;;-0.70;99.90;;;;;;5046086;28;20044;-61
2023/11/25 10:11:42;;;;;;;1.45;1.10;;;-0.70;99.90;;;;;;5048752;28;20045;-61
2023/11/25 10:14:13;;;;;;;2.42;0.95;;;-0.80;99.90;;;;;;5051099;28;20041;-61
2023/11/25 10:16:44;;;;;;;4.32;1.08;;;-0.90;99.90;;;;;;5051954;28;20040;-62
2023/11/25 10:19:22;;;;;;;1.88;1.02;;;-1.10;99.90;;;;;;5051774;28;20037;-63
2023/11/25 10:21:50;;;;;;;2.55;1.02;;;-1.20;99.90;;;;;;5053290;28;20552;-61
2023/11/25 10:24:20;;;;;;;0.77;0.77;;;-1.20;99.90;;;;;;5049403;28;20041;-60
2023/11/25 10:26:49;;;;;;;2.97;1.42;;;-1.20;99.90;;;;;;5050777;28;20045;-63
2023/11/25 10:29:20;;;;;;;2.80;1.30;;;-1.10;99.90;;;;;;5048935;28;20060;-64
2023/11/25 10:31:55;;;;;;;2.55;1.50;;;-1.00;99.90;;;;;;5052239;28;20076;-62
2023/11/25 10:34:24;;;;;;;1.45;0.95;;;-0.90;99.90;;;;;;5050668;28;20036;-62
2023/11/25 10:36:52;;;;;;;2.05;0.85;;;-0.90;99.90;;;;;;5056717;28;20098;-66
2023/11/25 10:39:20;;;;;;;4.10;0.98;;;-0.80;99.90;;;;;;5051985;28;20064;-61
2023/11/25 10:41:51;;;;;;;2.97;0.95;;;-1.00;99.90;;;;;;5049473;28;20044;-61
2023/11/25 10:44:19;;;;;;;3.03;1.35;;;-1.20;99.90;;;;;;5058001;28;20053;-63
2023/11/25 10:46:47;;;;;;;4.00;1.42;;;-1.40;99.90;;;;;;5050355;28;20036;-60
2023/11/25 10:49:18;;;;;;;3.85;2.55;;;-1.40;99.90;;;;;;5048675;28;20125;-63
2023/11/25 10:51:45;;;;;;;2.55;1.10;;;-1.40;99.90;;;;;;5051958;28;20051;-61
2023/11/25 10:54:16;;;;;;;1.75;1.58;;;-1.40;99.90;;;;;;5047265;28;20125;-63
2023/11/25 10:56:44;;;;;;;3.72;1.38;;;-1.30;99.90;;;;;;5054582;28;20110;-64
2023/11/25 10:59:14;;;;;;;1.83;1.02;;;-1.30;99.90;;;;;;5049445;28;20115;-60
2023/11/25 11:01:43;;;;;;;1.23;0.80;;;-1.20;99.90;;;;;;5047499;28;20052;-60
2023/11/25 11:04:32;;;;;;;3.92;1.40;;;-1.20;99.90;;;;;;5052871;28;20048;-63
2023/11/25 11:07:03;;;;;;;2.15;1.00;;;-1.00;99.90;;;;;;5053780;28;20040;-60
2023/11/25 11:09:35;;;;;;;3.67;1.80;;;-0.90;99.90;;;;;;5049029;28;20041;-61
2023/11/25 11:12:07;;;;;;;4.60;1.05;;;-0.80;99.90;;;;;;5049944;28;20045;-65
2023/11/25 11:14:43;;;;;;;2.35;0.63;;;-0.60;99.90;;;;;;5050257;28;20042;-60
2023/11/25 11:17:27;;;;;;;4.95;0.80;;;-0.50;99.90;;;;;;5049783;28;20044;-60
2023/11/25 11:19:59;;;;;;;2.15;0.80;;;-0.50;99.90;;;;;;5048387;28;20467;-67
2023/11/25 11:22:27;;;;;;;3.28;0.88;;;-0.60;99.90;;;;;;5045825;28;20056;-62
2023/11/25 11:25:24;;;;;;;1.55;0.80;;;-0.70;99.90;;;;;;5051667;28;20033;-61
2023/11/25 11:28:17;;;;;;;2.03;0.95;;;-0.80;99.90;;;;;;5059023;28;20041;-61
2023/11/25 11:30:50;;;;;;;1.85;0.80;;;-0.90;99.90;;;;;;5047235;28;20053;-63
2023/11/25 11:33:17;;;;;;;2.95;0.60;;;-1.00;99.90;;;;;;5052888;28;20449;-60
2023/11/25 11:35:49;;;;;;;0.95;0.73;;;-1.10;99.90;;;;;;5056078;28;20566;-65
2023/11/25 11:38:24;;;;;;;1.17;0.65;;;-1.20;99.90;;;;;;5048095;28;20060;-60
2023/11/25 11:40:53;;;;;;;1.42;0.52;;;-1.30;99.90;;;;;;5051744;28;20043;-60
2023/11/25 11:43:20;;;;;;;1.13;0.90;;;-1.40;99.90;;;;;;5047889;28;20498;-63
2023/11/25 11:45:49;;;;;;;3.13;0.80;;;-1.40;99.90;;;;;;5051038;28;20470;-60
2023/11/25 11:48:16;;;;;;;1.05;0.80;;;-1.40;99.90;;;;;;5051849;28;20076;-64
2023/11/25 11:50:44;;;;;;;4.07;1.05;;;-1.40;99.90;;;;;;5032319;28;20041;-61
2023/11/25 11:53:13;;;;;;;1.48;1.23;;;-1.50;99.90;;;;;;5052149;28;20067;-62
2023/11/25 11:55:52;;;;;;;5.55;1.48;;;-1.50;99.90;;;;;;5034312;28;20099;-64
2023/11/25 11:58:21;;;;;;;3.53;1.33;;;-1.40;99.90;;;;;;5051932;28;20048;-62
2023/11/25 12:00:52;;;;;;;4.38;1.45;;;-1.30;99.90;;;;;;5046671;28;20119;-60
2023/11/25 12:03:20;;;;;;;2.80;2.10;;;-1.30;99.90;;;;;;5045127;28;20045;-65
2023/11/25 12:05:47;;;;;;;1.58;1.48;;;-1.30;99.90;;;;;;5048314;28;20135;-61
2023/11/25 12:08:14;;;;;;;3.58;1.20;;;-1.20;99.90;;;;;;5057315;28;20045;-67
2023/11/25 12:10:41;;;;;;;3.55;1.33;;;-1.00;99.90;;;;;;5049104;28;20123;-61
2023/11/25 12:13:08;;;;;;;2.90;1.10;;;-0.90;99.90;;;;;;5059010;28;20459;-64
2023/11/25 12:15:36;;;;;;;5.10;1.35;;;-0.80;99.90;;;;;;5057303;28;20132;-64
2023/11/25 12:18:05;;;;;;;3.35;1.00;;;-0.70;99.90;;;;;;5055420;28;20457;-63
2023/11/25 12:20:33;;;;;;;1.23;0.80;;;-0.70;99.90;;;;;;5055237;28;20045;-60
2023/11/25 12:23:06;;;;;;;2.58;1.00;;;-0.70;99.90;;;;;;5050955;28;20094;-62
2023/11/25 12:25:35;;;;;;;1.95;1.30;;;-0.70;99.90;;;;;;5048280;28;20040;-60
2023/11/25 12:28:06;;;;;;;3.65;1.65;;;-0.60;99.90;;;;;;5056144;28;20372;-60
2023/11/25 12:30:37;;;;;;;4.03;1.23;;;-0.50;99.90;;;;;;5050202;28;20060;-61
2023/11/25 12:33:05;;;;;;;4.40;1.33;;;-0.50;99.90;;;;;;5059338;28;20052;-64
2023/11/25 12:35:39;;;;;;;4.20;1.90;;;-0.50;99.90;;;;;;5053647;28;20539;-64
2023/11/25 12:38:06;;;;;;;3.72;1.35;;;-0.50;99.90;;;;;;5051146;28;20044;-66
2023/11/25 12:40:44;;;;;;;1.98;0.80;;;-0.50;99.90;;;;;;5051336;28;20409;-60
2023/11/25 12:43:13;;;;;;;16.60;2.38;;;-0.50;99.90;;;;;;5029603;28;20088;-60
2023/11/25 12:45:41;;;;;;;5.28;1.45;;;-0.50;99.90;;;;;;5051648;28;20045;-62
2023/11/25 12:48:11;;;;;;;2.05;0.90;;;-0.50;99.90;;;;;;5048335;28;20032;-61
2023/11/25 12:51:01;;;;;;;3.28;1.10;;;-0.50;99.90;;;;;;5054626;28;20098;-61
2023/11/25 12:53:28;;;;;;;3.97;1.10;;;-0.50;99.90;;;;;;5051362;28;20052;-62
2023/11/25 12:55:57;;;;;;;2.90;0.95;;;-0.50;99.90;;;;;;5053422;28;20041;-62
2023/11/25 12:58:25;;;;;;;2.28;0.93;;;-0.50;99.90;;;;;;5055974;28;20644;-69
2023/11/25 13:00:55;;;;;;;1.30;0.65;;;-0.50;99.90;;;;;;5054596;28;20660;-60